AIRPORT ID: KEFC

DATE: 2021-12-09 ZULU TIME: 0.55 LOCAL TIME: 17.55


METAR KEFC 090055Z AUTO 00000KT 10SM 06/M06 A2940

ALTIMETER: A2940 Q996

DENSITY ALT: 3400 Ft

WIND DIRECT: 340

WIND SPEED: 2 Gust

WIND CONDITIONS:

VISIBILTY: 10SM 9999M

TEMPERATURE: 43 F 6 C

DEW POINT: 21 F -6 C

HUMID: 42%

LCL: 3,000-5,000 feet

RADIO CHECK: 0

ADVISARIES: 0

GREETINGS: 0

CONVERSATIONS: 0